createdAt,value
2019-03-09T00:02:26.374Z,5.02
2019-03-09T00:03:30.975Z,4.95
2019-03-09T00:04:35.227Z,4.94
2019-03-09T00:05:39.802Z,4.94
2019-03-09T00:06:44.111Z,5.01
2019-03-09T00:07:48.391Z,5.00
2019-03-09T00:08:52.675Z,5.04
2019-03-09T00:09:56.946Z,5.07
2019-03-09T00:11:01.195Z,5.04
2019-03-09T00:12:08.371Z,5.08
2019-03-09T00:13:15.279Z,5.10
2019-03-09T00:14:19.535Z,5.06
2019-03-09T00:15:26.484Z,5.11
2019-03-09T00:16:30.780Z,5.12
2019-03-09T00:17:35.045Z,5.11
2019-03-09T00:18:39.590Z,5.12
2019-03-09T00:19:45.061Z,5.13
2019-03-09T00:20:52.585Z,5.10
2019-03-09T00:21:57.421Z,5.12
2019-03-09T00:23:06.026Z,5.12
2019-03-09T00:24:18.242Z,5.10
2019-03-09T00:25:24.337Z,5.15
2019-03-09T00:26:33.314Z,5.14
2019-03-09T00:27:39.399Z,5.17
2019-03-09T00:29:03.437Z,5.17
2019-03-09T00:30:13.970Z,5.18
2019-03-09T00:31:22.642Z,5.19
2019-03-09T00:32:26.904Z,5.17
2019-03-09T00:33:31.160Z,5.16
2019-03-09T00:34:38.482Z,5.16
2019-03-09T00:35:42.768Z,5.18
2019-03-09T00:36:47.188Z,5.19
2019-03-09T00:37:51.530Z,5.15
2019-03-09T00:38:55.866Z,5.20
2019-03-09T00:40:00.316Z,5.22
2019-03-09T00:41:04.598Z,5.19
2019-03-09T00:42:08.844Z,5.21
2019-03-09T00:43:16.355Z,5.23
2019-03-09T00:44:23.769Z,5.23
2019-03-09T00:45:31.010Z,5.22
2019-03-09T00:46:35.417Z,5.16
2019-03-09T00:47:39.688Z,5.15
2019-03-09T00:48:43.946Z,5.16
2019-03-09T00:49:50.890Z,5.13
2019-03-09T00:50:55.457Z,5.17
2019-03-09T00:52:00.182Z,5.19
2019-03-09T00:53:04.447Z,5.24
2019-03-09T00:54:08.696Z,5.22
2019-03-09T00:55:13.220Z,5.25
2019-03-09T00:56:17.499Z,5.28
2019-03-09T00:57:21.760Z,5.29
2019-03-09T00:58:28.950Z,5.34
2019-03-09T00:59:36.221Z,5.37
2019-03-09T01:00:40.478Z,5.35
2019-03-09T01:01:44.767Z,5.37
2019-03-09T01:02:51.943Z,5.41
2019-03-09T01:03:57.166Z,5.43
2019-03-09T01:05:01.747Z,5.41
2019-03-09T01:06:06.011Z,5.39
2019-03-09T01:07:10.295Z,5.43
2019-03-09T01:08:14.538Z,5.45
2019-03-09T01:09:18.804Z,5.42
2019-03-09T01:10:23.051Z,5.44
2019-03-09T01:11:27.343Z,5.43
2019-03-09T01:12:31.598Z,5.43
2019-03-09T01:13:36.865Z,5.45
2019-03-09T01:14:41.150Z,5.44
2019-03-09T01:15:48.397Z,5.47
2019-03-09T01:16:53.056Z,5.47
2019-03-09T01:17:57.295Z,5.43
2019-03-09T01:19:01.543Z,5.40
2019-03-09T01:20:11.266Z,5.36
2019-03-09T01:21:18.474Z,5.34
2019-03-09T01:22:22.748Z,5.35
2019-03-09T01:23:29.962Z,5.31
2019-03-09T01:24:34.218Z,5.30
2019-03-09T01:25:41.246Z,5.27
2019-03-09T01:26:45.704Z,5.26
2019-03-09T01:27:50.309Z,5.23
2019-03-09T01:28:54.570Z,5.28
2019-03-09T01:29:58.836Z,5.28
2019-03-09T01:31:03.091Z,5.28
2019-03-09T01:32:08.522Z,5.28
2019-03-09T01:33:12.754Z,5.33
2019-03-09T01:34:20.083Z,5.38
2019-03-09T01:35:24.336Z,5.41
2019-03-09T01:36:28.622Z,5.44
2019-03-09T01:37:32.891Z,5.45
2019-03-09T01:38:38.114Z,5.45
2019-03-09T01:39:42.385Z,5.45
2019-03-09T01:40:46.620Z,5.47
2019-03-09T01:41:53.765Z,5.46
2019-03-09T01:43:00.941Z,5.46
2019-03-09T01:44:05.243Z,5.48
2019-03-09T01:45:16.073Z,5.48
2019-03-09T01:46:20.336Z,5.48
2019-03-09T01:47:27.360Z,5.50
2019-03-09T01:48:31.612Z,5.48
2019-03-09T01:49:35.859Z,5.47
2019-03-09T01:50:40.147Z,5.45
2019-03-09T01:51:44.423Z,5.51
2019-03-09T01:52:48.693Z,5.54
2019-03-09T01:53:52.969Z,5.50
2019-03-09T01:54:59.887Z,5.50
2019-03-09T01:56:04.468Z,5.50
2019-03-09T01:57:09.726Z,5.52
2019-03-09T01:58:16.723Z,5.53
2019-03-09T01:59:21.517Z,5.55
2019-03-09T02:00:28.504Z,5.54
2019-03-09T02:01:32.784Z,5.52
2019-03-09T02:02:39.985Z,5.52
2019-03-09T02:03:44.254Z,5.53
2019-03-09T02:04:48.518Z,5.55
2019-03-09T02:05:52.769Z,5.55
2019-03-09T02:06:57.050Z,5.56
2019-03-09T02:08:01.688Z,5.58
2019-03-09T02:09:07.577Z,5.60
2019-03-09T02:10:14.168Z,5.60
2019-03-09T02:11:18.801Z,5.63
2019-03-09T02:12:23.090Z,5.60
2019-03-09T02:13:30.440Z,5.66
2019-03-09T02:14:34.686Z,5.66
2019-03-09T02:15:40.022Z,5.66
2019-03-09T02:16:44.591Z,5.58
2019-03-09T02:17:50.312Z,5.62
2019-03-09T02:18:54.559Z,5.60
2019-03-09T02:19:58.816Z,5.64
2019-03-09T02:21:03.229Z,5.60
2019-03-09T02:22:07.510Z,5.60
2019-03-09T02:23:11.758Z,5.62
2019-03-09T02:24:16.173Z,5.62
2019-03-09T02:25:20.417Z,5.61
2019-03-09T02:26:27.397Z,5.61
2019-03-09T02:27:31.687Z,5.60
2019-03-09T02:28:35.939Z,5.59
2019-03-09T02:29:42.941Z,5.63
2019-03-09T02:30:47.189Z,5.60
2019-03-09T02:31:54.366Z,5.60
2019-03-09T02:32:58.683Z,5.59
2019-03-09T02:34:02.940Z,5.56
2019-03-09T02:35:11.578Z,5.57
2019-03-09T02:36:16.244Z,5.61
2019-03-09T02:37:23.463Z,5.64
2019-03-09T02:38:29.360Z,5.64
2019-03-09T02:39:53.269Z,5.62
2019-03-09T02:40:57.823Z,5.61
2019-03-09T02:42:02.098Z,5.62
2019-03-09T02:43:06.370Z,5.61
2019-03-09T02:44:10.956Z,5.57
2019-03-09T02:45:22.877Z,5.62
2019-03-09T02:46:27.133Z,5.64
2019-03-09T02:47:34.377Z,5.62
2019-03-09T02:48:41.643Z,5.65
2019-03-09T02:49:48.593Z,5.62
2019-03-09T02:50:58.246Z,5.66
2019-03-09T02:52:02.514Z,5.64
2019-03-09T02:53:06.783Z,5.64
2019-03-09T02:54:11.060Z,5.60
2019-03-09T02:55:18.431Z,5.61
2019-03-09T02:56:22.677Z,5.64
2019-03-09T02:57:29.959Z,5.65
2019-03-09T02:58:34.270Z,5.65
2019-03-09T02:59:38.634Z,5.68
2019-03-09T03:00:44.507Z,5.70
2019-03-09T03:01:52.838Z,5.72
2019-03-09T03:03:01.446Z,5.71
2019-03-09T03:04:05.716Z,5.75
2019-03-09T03:05:09.968Z,5.77
2019-03-09T03:06:14.293Z,5.82
2019-03-09T03:07:18.557Z,5.81
2019-03-09T03:08:22.906Z,5.83
2019-03-09T03:09:27.184Z,5.86
2019-03-09T03:10:31.753Z,5.88
2019-03-09T03:11:39.059Z,5.89
2019-03-09T03:12:43.305Z,5.88
2019-03-09T03:13:47.617Z,5.86
2019-03-09T03:14:52.178Z,5.90
2019-03-09T03:15:57.318Z,5.91
2019-03-09T03:17:01.894Z,5.88
2019-03-09T03:18:06.229Z,5.89
2019-03-09T03:19:10.526Z,5.91
2019-03-09T03:20:14.789Z,5.91
2019-03-09T03:21:19.402Z,5.89
2019-03-09T03:22:23.725Z,5.90
2019-03-09T03:23:28.975Z,5.93
2019-03-09T03:24:33.251Z,5.88
2019-03-09T03:25:40.457Z,5.90
2019-03-09T03:26:47.801Z,5.89
2019-03-09T03:27:54.743Z,5.91
2019-03-09T03:28:59.051Z,5.93
2019-03-09T03:30:03.417Z,5.92
2019-03-09T03:31:07.747Z,5.92
2019-03-09T03:32:11.993Z,5.91
2019-03-09T03:33:17.227Z,5.92
2019-03-09T03:34:21.524Z,5.91
2019-03-09T03:35:25.803Z,5.94
2019-03-09T03:36:32.735Z,6.00
2019-03-09T03:37:37.024Z,6.00
2019-03-09T03:38:41.315Z,6.02
2019-03-09T03:39:48.333Z,5.99
2019-03-09T03:40:52.647Z,6.01
2019-03-09T03:41:57.239Z,5.98
2019-03-09T03:43:01.496Z,6.01
2019-03-09T03:44:05.750Z,6.00
2019-03-09T03:45:11.646Z,5.98
2019-03-09T03:46:15.925Z,5.98
2019-03-09T03:47:23.084Z,5.98
2019-03-09T03:48:27.364Z,6.00
2019-03-09T03:49:31.615Z,6.05
2019-03-09T03:50:38.868Z,6.06
2019-03-09T03:51:44.157Z,6.08
2019-03-09T03:52:49.426Z,6.06
2019-03-09T03:53:53.697Z,6.07
2019-03-09T03:54:57.980Z,6.08
2019-03-09T03:56:02.276Z,6.11
2019-03-09T03:57:06.511Z,6.13
2019-03-09T03:58:10.770Z,6.17
2019-03-09T03:59:17.799Z,6.16
2019-03-09T04:00:22.065Z,6.17
2019-03-09T04:01:26.327Z,6.20
2019-03-09T04:02:30.601Z,6.23
2019-03-09T04:03:35.235Z,6.22
2019-03-09T04:04:39.531Z,6.26
2019-03-09T04:05:43.768Z,6.27
2019-03-09T04:06:48.013Z,6.29
2019-03-09T04:07:52.292Z,6.28
2019-03-09T04:08:56.588Z,6.27
2019-03-09T04:10:00.837Z,6.28
2019-03-09T04:11:09.416Z,6.29
2019-03-09T04:12:16.611Z,6.31
2019-03-09T04:13:24.032Z,6.34
2019-03-09T04:14:28.336Z,6.28
2019-03-09T04:15:33.049Z,6.26
2019-03-09T04:16:40.099Z,6.29
2019-03-09T04:17:44.357Z,6.30
2019-03-09T04:18:48.640Z,6.33
2019-03-09T04:19:53.270Z,6.31
2019-03-09T04:20:57.517Z,6.34
2019-03-09T04:22:02.734Z,6.37
2019-03-09T04:23:07.357Z,6.41
2019-03-09T04:24:11.609Z,6.46
2019-03-09T04:25:15.873Z,6.47
2019-03-09T04:26:20.126Z,6.48
2019-03-09T04:27:24.377Z,6.49
2019-03-09T04:28:28.670Z,6.51
2019-03-09T04:29:35.885Z,6.54
2019-03-09T04:30:42.849Z,6.53
2019-03-09T04:31:47.096Z,6.52
2019-03-09T04:32:51.374Z,6.45
2019-03-09T04:33:55.931Z,6.45
2019-03-09T04:35:00.395Z,6.42
2019-03-09T04:36:04.727Z,6.38
2019-03-09T04:37:12.000Z,6.35
2019-03-09T04:38:16.246Z,6.35
2019-03-09T04:39:20.527Z,6.36
2019-03-09T04:40:24.786Z,6.34
2019-03-09T04:41:29.059Z,6.37
2019-03-09T04:42:33.405Z,6.38
2019-03-09T04:43:40.932Z,6.38
2019-03-09T04:44:45.207Z,6.43
2019-03-09T04:45:49.519Z,6.40
2019-03-09T04:46:53.824Z,6.45
2019-03-09T04:47:58.076Z,6.44
2019-03-09T04:49:05.415Z,6.45
2019-03-09T04:50:11.444Z,6.46
2019-03-09T04:51:18.370Z,6.48
2019-03-09T04:52:25.692Z,6.49
2019-03-09T04:53:32.861Z,6.49
2019-03-09T04:54:39.799Z,6.50
2019-03-09T04:55:46.963Z,6.52
2019-03-09T04:56:51.219Z,6.52
2019-03-09T04:57:57.449Z,6.51
2019-03-09T04:59:01.419Z,6.53
2019-03-09T05:00:08.356Z,6.47
2019-03-09T05:01:12.698Z,6.51
2019-03-09T05:02:19.788Z,6.49
2019-03-09T05:03:26.706Z,6.48
2019-03-09T05:04:42.166Z,6.50
2019-03-09T05:05:46.743Z,6.47
2019-03-09T05:06:53.659Z,6.46
2019-03-09T05:08:04.313Z,6.51
2019-03-09T05:09:30.854Z,6.52
2019-03-09T05:10:44.342Z,6.49
2019-03-09T05:11:51.277Z,6.49
2019-03-09T05:12:59.229Z,6.50
2019-03-09T05:14:06.499Z,6.51
2019-03-09T05:15:13.540Z,6.48
2019-03-09T05:16:17.795Z,6.49
2019-03-09T05:17:22.060Z,6.50
2019-03-09T05:18:26.321Z,6.51
2019-03-09T05:19:30.745Z,6.48
2019-03-09T05:20:37.986Z,6.51
2019-03-09T05:21:42.229Z,6.50
2019-03-09T05:22:49.457Z,6.50
2019-03-09T05:23:53.699Z,6.48
2019-03-09T05:24:58.000Z,6.52
2019-03-09T05:26:02.292Z,6.50
2019-03-09T05:27:06.544Z,6.51
2019-03-09T05:28:10.795Z,6.61
2019-03-09T05:29:15.072Z,6.63
2019-03-09T05:30:41.093Z,6.63
2019-03-09T05:31:48.376Z,6.62
2019-03-09T05:32:52.691Z,6.59
2019-03-09T05:33:56.958Z,6.54
2019-03-09T05:35:01.245Z,6.55
2019-03-09T05:36:08.826Z,6.54
2019-03-09T05:37:13.123Z,6.57
2019-03-09T05:38:20.017Z,6.57
2019-03-09T05:39:26.664Z,6.56
2019-03-09T05:40:30.941Z,6.56
2019-03-09T05:41:38.269Z,6.57
2019-03-09T05:42:42.543Z,6.60
2019-03-09T05:43:50.448Z,6.59
2019-03-09T05:44:54.695Z,6.55
2019-03-09T05:45:58.967Z,6.59
2019-03-09T05:47:07.522Z,6.61
2019-03-09T05:48:11.776Z,6.62
2019-03-09T05:49:16.034Z,6.64
2019-03-09T05:50:20.305Z,6.62
2019-03-09T05:51:24.583Z,6.62
2019-03-09T05:52:29.308Z,6.59
2019-03-09T05:53:33.579Z,6.60
2019-03-09T05:54:40.902Z,6.59
2019-03-09T05:55:45.176Z,6.58
2019-03-09T05:56:49.435Z,6.58
2019-03-09T05:57:56.619Z,6.58
2019-03-09T05:59:01.312Z,6.56
2019-03-09T06:00:11.968Z,6.57
2019-03-09T06:01:16.453Z,6.59
2019-03-09T06:02:20.701Z,6.56
2019-03-09T06:03:24.961Z,6.56
2019-03-09T06:04:29.543Z,6.50
2019-03-09T06:05:47.348Z,6.50
2019-03-09T06:06:54.637Z,6.48
2019-03-09T06:07:59.231Z,6.46
2019-03-09T06:09:04.237Z,6.50
2019-03-09T06:10:10.102Z,6.48
2019-03-09T06:11:14.368Z,6.48
2019-03-09T06:12:18.630Z,6.46
2019-03-09T06:13:22.914Z,6.46
2019-03-09T06:14:27.155Z,6.45
2019-03-09T06:15:34.081Z,6.42
2019-03-09T06:16:38.358Z,6.41
2019-03-09T06:17:45.316Z,6.38
2019-03-09T06:18:49.574Z,6.39
2019-03-09T06:19:54.128Z,6.36
2019-03-09T06:20:58.669Z,6.35
2019-03-09T06:22:03.278Z,6.34
2019-03-09T06:23:08.504Z,6.31
2019-03-09T06:24:12.780Z,6.31
2019-03-09T06:25:18.002Z,6.31
2019-03-09T06:26:22.284Z,6.35
2019-03-09T06:27:26.532Z,6.34
2019-03-09T06:28:30.784Z,6.35
2019-03-09T06:29:35.076Z,6.33
2019-03-09T06:30:39.300Z,6.31
2019-03-09T06:32:03.113Z,6.29
2019-03-09T06:33:30.058Z,6.29
2019-03-09T06:34:34.334Z,6.30
2019-03-09T06:35:38.606Z,6.28
2019-03-09T06:36:52.166Z,6.23
2019-03-09T06:38:19.363Z,6.26
2019-03-09T06:39:23.604Z,6.24
2019-03-09T06:40:28.209Z,6.23
2019-03-09T06:41:38.690Z,6.23
2019-03-09T06:42:47.796Z,6.23
2019-03-09T06:43:52.042Z,6.22
2019-03-09T06:45:00.022Z,6.22
2019-03-09T06:46:04.319Z,6.21
2019-03-09T06:47:08.614Z,6.21
2019-03-09T06:48:12.905Z,6.21
2019-03-09T06:49:17.188Z,6.22
2019-03-09T06:50:21.518Z,6.22
2019-03-09T06:51:25.772Z,6.19
2019-03-09T06:52:30.445Z,6.17
2019-03-09T06:53:36.183Z,6.16
2019-03-09T06:54:43.680Z,6.14
2019-03-09T06:55:49.418Z,6.11
2019-03-09T06:56:54.052Z,6.10
2019-03-09T06:57:58.463Z,6.09
2019-03-09T06:59:08.945Z,6.09
2019-03-09T07:00:22.200Z,6.07
2019-03-09T07:01:26.595Z,6.08
2019-03-09T07:02:33.550Z,6.08
2019-03-09T07:03:37.843Z,6.07
2019-03-09T07:04:42.308Z,6.06
2019-03-09T07:05:46.564Z,6.08
2019-03-09T07:06:53.621Z,6.12
2019-03-09T07:07:59.527Z,6.08
2019-03-09T07:09:06.684Z,6.05
2019-03-09T07:10:11.632Z,6.04
2019-03-09T07:11:15.892Z,6.07
2019-03-09T07:12:23.113Z,6.05
2019-03-09T07:13:27.845Z,6.05
2019-03-09T07:14:54.596Z,6.07
2019-03-09T07:16:01.542Z,6.10
2019-03-09T07:17:05.826Z,6.14
2019-03-09T07:18:13.227Z,6.14
2019-03-09T07:19:17.471Z,6.16
2019-03-09T07:20:21.718Z,6.11
2019-03-09T07:21:26.353Z,6.15
2019-03-09T07:22:30.619Z,6.12
2019-03-09T07:23:35.180Z,6.14
2019-03-09T07:24:39.437Z,6.14
2019-03-09T07:25:43.683Z,6.16
2019-03-09T07:26:47.981Z,6.23
2019-03-09T07:28:00.370Z,6.29
2019-03-09T07:29:07.682Z,6.32
2019-03-09T07:30:17.299Z,6.37
2019-03-09T07:31:21.546Z,6.38
2019-03-09T07:32:25.892Z,6.38
2019-03-09T07:33:30.123Z,6.42
2019-03-09T07:34:37.335Z,6.41
2019-03-09T07:35:41.587Z,6.40
2019-03-09T07:36:45.854Z,6.41
2019-03-09T07:37:50.131Z,6.43
2019-03-09T07:38:54.382Z,6.44
2019-03-09T07:39:58.645Z,6.45
2019-03-09T07:41:05.900Z,6.45
2019-03-09T07:42:10.181Z,6.46
2019-03-09T07:43:14.786Z,6.47
2019-03-09T07:44:19.219Z,6.47
2019-03-09T07:45:23.747Z,6.46
2019-03-09T07:46:33.915Z,6.47
2019-03-09T07:47:38.337Z,6.45
2019-03-09T07:48:42.641Z,6.43
2019-03-09T07:49:47.218Z,6.43
2019-03-09T07:50:51.766Z,6.44
2019-03-09T07:51:56.021Z,6.46
2019-03-09T07:53:00.672Z,6.47
2019-03-09T07:54:04.937Z,6.48
2019-03-09T07:55:15.442Z,6.47
2019-03-09T07:56:19.694Z,6.49
2019-03-09T07:57:24.050Z,6.50
2019-03-09T07:58:28.311Z,6.53
2019-03-09T07:59:32.565Z,6.58
2019-03-09T08:00:36.827Z,6.57
2019-03-09T08:01:44.230Z,6.59
2019-03-09T08:02:48.472Z,6.64
2019-03-09T08:03:52.750Z,6.64
2019-03-09T08:04:57.175Z,6.66
2019-03-09T08:06:01.772Z,6.64
2019-03-09T08:07:06.116Z,6.66
2019-03-09T08:08:10.371Z,6.68
2019-03-09T08:09:17.491Z,6.68
2019-03-09T08:10:24.474Z,6.72
2019-03-09T08:11:28.764Z,6.76
2019-03-09T08:12:33.017Z,6.82
2019-03-09T08:13:37.707Z,6.85
2019-03-09T08:14:42.173Z,6.88
2019-03-09T08:15:46.775Z,6.91
2019-03-09T08:16:53.872Z,6.90
2019-03-09T08:17:58.328Z,6.94
2019-03-09T08:19:03.149Z,6.99
2019-03-09T08:20:12.569Z,7.02
2019-03-09T08:21:16.820Z,7.05
2019-03-09T08:22:23.761Z,7.05
2019-03-09T08:23:28.030Z,7.07
2019-03-09T08:24:33.038Z,7.07
2019-03-09T08:25:37.292Z,7.10
2019-03-09T08:26:41.865Z,7.11
2019-03-09T08:27:48.785Z,7.14
2019-03-09T08:28:54.015Z,7.17
2019-03-09T08:29:58.571Z,7.31
2019-03-09T08:31:02.856Z,7.54
2019-03-09T08:32:10.014Z,7.72
2019-03-09T08:33:17.237Z,7.74
2019-03-09T08:34:21.854Z,7.82
2019-03-09T08:35:26.081Z,7.83
2019-03-09T08:36:35.009Z,7.85
2019-03-09T08:37:38.951Z,7.84
2019-03-09T08:38:48.818Z,7.86
2019-03-09T08:39:56.078Z,7.89
2019-03-09T08:41:00.436Z,7.86
2019-03-09T08:42:04.692Z,7.87
2019-03-09T08:43:08.946Z,7.84
2019-03-09T08:44:13.217Z,7.79
2019-03-09T08:45:18.790Z,7.81
2019-03-09T08:46:25.969Z,7.82
2019-03-09T08:47:30.274Z,7.86
2019-03-09T08:48:34.493Z,7.91
2019-03-09T08:49:38.752Z,7.94
2019-03-09T08:50:43.795Z,8.07
2019-03-09T08:51:50.781Z,8.16
2019-03-09T08:52:55.025Z,8.19
2019-03-09T08:53:59.314Z,8.28
2019-03-09T08:55:04.146Z,8.33
2019-03-09T08:56:08.368Z,8.34
2019-03-09T08:57:15.400Z,8.36
2019-03-09T08:58:19.669Z,8.51
2019-03-09T08:59:23.909Z,8.59
2019-03-09T09:00:30.939Z,8.53
2019-03-09T09:01:35.221Z,8.68
2019-03-09T09:02:39.785Z,8.84
2019-03-09T09:03:44.118Z,8.84
2019-03-09T09:04:48.391Z,8.88
2019-03-09T09:05:52.645Z,9.05
2019-03-09T09:06:56.903Z,8.94
2019-03-09T09:08:03.594Z,8.85
2019-03-09T09:09:10.493Z,8.89
2019-03-09T09:10:14.888Z,8.91
2019-03-09T09:11:19.142Z,9.05
2019-03-09T09:12:23.395Z,9.05
2019-03-09T09:13:27.639Z,9.07
2019-03-09T09:14:32.245Z,9.09
2019-03-09T09:15:36.493Z,9.08
2019-03-09T09:16:40.898Z,9.14
2019-03-09T09:17:45.143Z,9.18
2019-03-09T09:18:50.413Z,9.27
2019-03-09T09:19:54.639Z,9.42
2019-03-09T09:20:59.218Z,9.60
2019-03-09T09:22:03.781Z,9.67
2019-03-09T09:23:08.046Z,9.78
2019-03-09T09:24:12.316Z,9.79
2019-03-09T09:25:16.564Z,9.73
2019-03-09T09:26:24.452Z,9.70
2019-03-09T09:27:28.692Z,9.78
2019-03-09T09:28:35.743Z,9.84
2019-03-09T09:29:40.188Z,9.88
2019-03-09T09:30:44.448Z,9.96
2019-03-09T09:31:48.692Z,9.98
2019-03-09T09:32:52.954Z,10.03
2019-03-09T09:33:58.457Z,9.94
2019-03-09T09:35:05.827Z,9.88
2019-03-09T09:36:13.021Z,9.94
2019-03-09T09:37:17.587Z,9.81
2019-03-09T09:38:21.840Z,9.82
2019-03-09T09:39:26.421Z,9.83
2019-03-09T09:40:31.031Z,9.81
2019-03-09T09:41:35.251Z,9.74
2019-03-09T09:42:39.532Z,9.72
2019-03-09T09:43:46.809Z,9.74
2019-03-09T09:44:51.073Z,9.76
2019-03-09T09:45:55.372Z,9.83
2019-03-09T09:46:59.657Z,9.90
2019-03-09T09:48:03.926Z,10.00
2019-03-09T09:49:11.064Z,10.23
2019-03-09T09:50:16.687Z,10.38
2019-03-09T09:51:24.044Z,10.43
2019-03-09T09:52:28.347Z,10.47
2019-03-09T09:53:32.620Z,10.39
2019-03-09T09:54:36.890Z,10.25
2019-03-09T09:55:44.123Z,10.42
2019-03-09T09:56:49.366Z,10.37
2019-03-09T09:57:53.631Z,10.25
2019-03-09T09:58:57.888Z,10.34
2019-03-09T10:00:03.068Z,10.37
2019-03-09T10:01:07.336Z,10.26
2019-03-09T10:02:14.680Z,10.21
2019-03-09T10:03:19.232Z,10.16
2019-03-09T10:04:23.487Z,10.31
2019-03-09T10:05:28.114Z,10.47
2019-03-09T10:06:32.358Z,10.35
2019-03-09T10:07:36.946Z,10.37
2019-03-09T10:08:43.933Z,10.37
2019-03-09T10:09:48.273Z,10.33
2019-03-09T10:10:52.533Z,10.48
2019-03-09T10:11:56.885Z,10.65
2019-03-09T10:13:03.972Z,10.71
2019-03-09T10:14:08.233Z,10.79
2019-03-09T10:15:20.680Z,10.84
2019-03-09T10:16:24.928Z,10.99
2019-03-09T10:17:29.208Z,10.88
2019-03-09T10:18:33.472Z,10.86
2019-03-09T10:19:37.700Z,10.74
2019-03-09T10:20:44.915Z,10.85
2019-03-09T10:21:48.865Z,10.82
2019-03-09T10:23:03.548Z,10.97
2019-03-09T10:24:00.192Z,10.98
2019-03-09T10:25:06.012Z,10.94
2019-03-09T10:26:12.931Z,10.95
2019-03-09T10:27:17.185Z,11.00
2019-03-09T10:28:24.389Z,11.00
2019-03-09T10:29:28.730Z,10.97
2019-03-09T10:30:37.055Z,10.97
2019-03-09T10:31:41.596Z,10.90
2019-03-09T10:32:46.140Z,10.71
2019-03-09T10:33:50.377Z,10.74
2019-03-09T10:34:54.641Z,10.73
2019-03-09T10:35:59.240Z,10.78
2019-03-09T10:37:06.444Z,10.76
2019-03-09T10:38:10.684Z,10.87
2019-03-09T10:39:14.931Z,10.67
2019-03-09T10:40:19.234Z,10.60
2019-03-09T10:41:23.494Z,10.44
2019-03-09T10:42:27.774Z,10.30
2019-03-09T10:43:35.273Z,10.47
2019-03-09T10:44:39.550Z,10.37
2019-03-09T10:45:43.826Z,10.33
2019-03-09T10:46:48.433Z,10.40
2019-03-09T10:47:53.713Z,10.39
2019-03-09T10:48:57.975Z,10.43
2019-03-09T10:50:02.225Z,10.64
2019-03-09T10:51:07.495Z,10.76
2019-03-09T10:52:14.669Z,10.63
2019-03-09T10:53:21.781Z,10.47
2019-03-09T10:54:35.573Z,10.39
2019-03-09T10:55:34.289Z,10.70
2019-03-09T10:56:38.543Z,10.73
2019-03-09T10:57:42.814Z,10.88
2019-03-09T10:58:47.075Z,10.85
2019-03-09T10:59:51.324Z,10.90
2019-03-09T11:00:55.602Z,10.94
2019-03-09T11:02:02.872Z,10.94
2019-03-09T11:03:09.831Z,10.88
2019-03-09T11:04:14.463Z,11.00
2019-03-09T11:05:18.710Z,10.87
2019-03-09T11:06:22.996Z,10.83
2019-03-09T11:07:32.614Z,10.92
2019-03-09T11:08:36.876Z,11.03
2019-03-09T11:09:41.144Z,11.19
2019-03-09T11:10:45.650Z,11.33
2019-03-09T11:11:50.344Z,11.01
2019-03-09T11:12:54.617Z,10.99
2019-03-09T11:13:58.854Z,10.95
2019-03-09T11:15:03.198Z,10.87
2019-03-09T11:16:07.496Z,11.04
2019-03-09T11:17:14.464Z,11.05
2019-03-09T11:18:19.037Z,11.03
2019-03-09T11:19:26.195Z,11.07
2019-03-09T11:20:30.783Z,10.95
2019-03-09T11:21:35.461Z,10.87
2019-03-09T11:22:39.984Z,10.87
2019-03-09T11:23:44.304Z,10.77
2019-03-09T11:24:48.667Z,10.75
2019-03-09T11:25:53.141Z,10.60
2019-03-09T11:27:00.380Z,10.69
2019-03-09T11:28:09.483Z,10.56
2019-03-09T11:29:13.752Z,10.60
2019-03-09T11:30:28.020Z,10.58
2019-03-09T11:31:32.318Z,10.75
2019-03-09T11:32:37.421Z,10.88
2019-03-09T11:33:41.661Z,11.03
2019-03-09T11:34:45.928Z,10.73
2019-03-09T11:35:50.482Z,10.73
2019-03-09T11:36:55.059Z,10.61
2019-03-09T11:37:59.360Z,10.52
2019-03-09T11:39:05.000Z,10.54
2019-03-09T11:40:09.540Z,10.61
2019-03-09T11:41:19.266Z,10.59
2019-03-09T11:42:22.593Z,10.67
2019-03-09T11:43:26.841Z,10.73
2019-03-09T11:44:31.181Z,10.98
2019-03-09T11:45:35.464Z,10.98
2019-03-09T11:46:39.771Z,10.98
2019-03-09T11:47:44.238Z,11.19
2019-03-09T11:48:48.841Z,11.21
2019-03-09T11:49:53.100Z,11.15
2019-03-09T11:50:57.360Z,11.04
2019-03-09T11:52:01.639Z,10.87
2019-03-09T11:53:05.925Z,10.95
2019-03-09T11:54:10.183Z,10.95
2019-03-09T11:55:15.419Z,10.94
2019-03-09T11:56:20.027Z,10.84
2019-03-09T11:57:24.287Z,10.76
2019-03-09T11:58:28.650Z,10.76
2019-03-09T11:59:32.911Z,10.74
2019-03-09T12:00:41.231Z,10.73
2019-03-09T12:01:45.865Z,10.83
2019-03-09T12:02:53.152Z,11.02
2019-03-09T12:03:57.713Z,10.98
2019-03-09T12:05:02.005Z,10.98
2019-03-09T12:06:06.265Z,11.05
2019-03-09T12:07:13.248Z,10.95
2019-03-09T12:08:17.499Z,11.14
2019-03-09T12:09:24.810Z,11.55
2019-03-09T12:10:29.169Z,11.85
2019-03-09T12:11:33.447Z,11.90
2019-03-09T12:12:38.022Z,12.24
2019-03-09T12:13:42.286Z,12.45
2019-03-09T12:14:46.599Z,12.50
2019-03-09T12:15:50.871Z,12.41
2019-03-09T12:16:55.183Z,12.36
2019-03-09T12:17:59.439Z,12.07
2019-03-09T12:19:03.685Z,11.92
2019-03-09T12:20:11.973Z,11.92
2019-03-09T12:21:17.141Z,12.21
2019-03-09T12:22:21.549Z,12.49
2019-03-09T12:23:28.841Z,12.35
2019-03-09T12:24:33.220Z,11.94
2019-03-09T12:25:37.716Z,11.94
2019-03-09T12:26:42.003Z,12.08
2019-03-09T12:27:46.464Z,12.25
2019-03-09T12:28:51.014Z,12.20
2019-03-09T12:29:58.189Z,12.16
2019-03-09T12:31:02.801Z,12.55
2019-03-09T12:32:07.122Z,12.55
2019-03-09T12:33:11.798Z,12.69
2019-03-09T12:34:18.809Z,12.86
2019-03-09T12:35:23.086Z,12.93
2019-03-09T12:36:27.344Z,12.83
2019-03-09T12:37:31.801Z,12.44
2019-03-09T12:38:36.349Z,12.38
2019-03-09T12:39:40.956Z,12.17
2019-03-09T12:40:45.152Z,11.98
2019-03-09T12:41:49.762Z,11.83
2019-03-09T12:42:54.375Z,11.68
2019-03-09T12:44:01.810Z,11.54
2019-03-09T12:45:08.518Z,11.59
2019-03-09T12:46:13.089Z,11.62
2019-03-09T12:47:20.739Z,11.66
2019-03-09T12:48:25.015Z,11.71
2019-03-09T12:49:29.267Z,11.69
2019-03-09T12:50:33.509Z,11.84
2019-03-09T12:51:37.777Z,11.83
2019-03-09T12:52:44.810Z,11.86
2019-03-09T12:53:49.064Z,11.80
2019-03-09T12:54:53.311Z,12.05
2019-03-09T12:55:57.600Z,11.79
2019-03-09T12:57:01.858Z,11.79
2019-03-09T12:58:06.353Z,11.79
2019-03-09T12:59:10.612Z,11.77
2019-03-09T13:00:19.766Z,11.66
2019-03-09T13:01:24.012Z,11.69
2019-03-09T13:02:28.283Z,11.81
2019-03-09T13:03:34.067Z,12.19
2019-03-09T13:04:41.988Z,12.19
2019-03-09T13:05:47.041Z,12.10
2019-03-09T13:06:51.888Z,12.23
2019-03-09T13:07:56.940Z,12.27
2019-03-09T13:09:01.597Z,12.53
2019-03-09T13:10:11.461Z,12.53
2019-03-09T13:11:16.411Z,12.45
2019-03-09T13:12:21.354Z,12.55
2019-03-09T13:13:26.172Z,12.28
2019-03-09T13:14:32.949Z,12.07
2019-03-09T13:15:38.256Z,12.08
2019-03-09T13:16:43.429Z,11.92
2019-03-09T13:17:48.330Z,12.06
2019-03-09T13:18:53.978Z,12.04
2019-03-09T13:19:58.736Z,11.96
2019-03-09T13:21:03.469Z,11.81
2019-03-09T13:22:11.063Z,11.81
2019-03-09T13:23:18.001Z,11.87
2019-03-09T13:24:25.281Z,11.83
2019-03-09T13:25:29.696Z,11.81
2019-03-09T13:26:33.972Z,11.70
2019-03-09T13:27:38.251Z,11.74
2019-03-09T13:28:42.554Z,11.61
2019-03-09T13:29:46.836Z,11.61
2019-03-09T13:30:51.074Z,11.62
2019-03-09T13:31:55.352Z,11.66
2019-03-09T13:32:59.646Z,11.49
2019-03-09T13:34:04.215Z,11.49
2019-03-09T13:35:08.476Z,11.47
2019-03-09T13:36:12.756Z,11.53
2019-03-09T13:37:20.129Z,11.52
2019-03-09T13:38:24.453Z,11.54
2019-03-09T13:39:28.696Z,11.57
2019-03-09T13:40:32.966Z,11.58
2019-03-09T13:41:37.242Z,11.58
2019-03-09T13:42:41.587Z,11.58
2019-03-09T13:43:45.856Z,11.68
2019-03-09T13:44:50.132Z,11.64
2019-03-09T13:45:54.395Z,11.62
2019-03-09T13:46:58.646Z,11.50
2019-03-09T13:48:05.656Z,11.70
2019-03-09T13:49:10.200Z,11.64
2019-03-09T13:50:15.092Z,11.52
2019-03-09T13:51:19.344Z,11.57
2019-03-09T13:52:23.596Z,11.57
2019-03-09T13:53:29.509Z,11.45
2019-03-09T13:54:33.740Z,11.47
2019-03-09T13:55:37.988Z,11.30
2019-03-09T13:56:45.215Z,11.24
2019-03-09T13:57:49.465Z,11.39
2019-03-09T13:58:53.743Z,11.35
2019-03-09T14:00:00.698Z,11.26
2019-03-09T14:01:04.930Z,11.21
2019-03-09T14:02:11.828Z,11.07
2019-03-09T14:03:19.132Z,11.09
2019-03-09T14:04:26.625Z,11.02
2019-03-09T14:05:33.725Z,11.02
2019-03-09T14:06:37.985Z,11.17
2019-03-09T14:07:42.245Z,11.09
2019-03-09T14:08:49.486Z,11.17
2019-03-09T14:09:53.755Z,11.17
2019-03-09T14:10:58.002Z,11.21
2019-03-09T14:12:02.437Z,11.22
2019-03-09T14:13:06.875Z,11.03
2019-03-09T14:14:11.966Z,11.11
2019-03-09T14:15:21.787Z,11.05
2019-03-09T14:16:26.200Z,11.01
2019-03-09T14:17:30.455Z,11.03
2019-03-09T14:18:34.724Z,11.06
2019-03-09T14:19:38.997Z,10.97
2019-03-09T14:20:48.359Z,10.92
2019-03-09T14:21:52.307Z,10.76
2019-03-09T14:23:00.252Z,10.94
2019-03-09T14:24:04.547Z,10.90